sensor_id;sensor_type;location;lat;lon;timestamp;P1;durP1;ratioP1;P2;durP2;ratioP2
21202;SDS011;10759;51.982;9.232;2023-10-08T00:01:10;10.25;;;8.38;;
21202;SDS011;10759;51.982;9.232;2023-10-08T00:03:41;14.30;;;7.70;;
21202;SDS011;10759;51.982;9.232;2023-10-08T00:06:17;14.02;;;8.95;;
21202;SDS011;10759;51.982;9.232;2023-10-08T00:08:47;12.68;;;8.27;;
21202;SDS011;10759;51.982;9.232;2023-10-08T00:11:16;11.70;;;8.20;;
21202;SDS011;10759;51.982;9.232;2023-10-08T00:13:45;15.57;;;8.07;;
21202;SDS011;10759;51.982;9.232;2023-10-08T00:16:16;15.43;;;8.73;;
21202;SDS011;10759;51.982;9.232;2023-10-08T00:18:45;15.80;;;8.25;;
21202;SDS011;10759;51.982;9.232;2023-10-08T00:21:19;11.75;;;8.43;;
21202;SDS011;10759;51.982;9.232;2023-10-08T00:23:53;18.95;;;8.70;;
21202;SDS011;10759;51.982;9.232;2023-10-08T00:26:26;11.48;;;7.57;;
21202;SDS011;10759;51.982;9.232;2023-10-08T00:28:57;12.57;;;7.75;;
21202;SDS011;10759;51.982;9.232;2023-10-08T00:31:27;17.90;;;8.30;;
21202;SDS011;10759;51.982;9.232;2023-10-08T00:34:03;13.20;;;7.90;;
21202;SDS011;10759;51.982;9.232;2023-10-08T00:36:39;21.40;;;8.40;;
21202;SDS011;10759;51.982;9.232;2023-10-08T00:39:09;13.88;;;8.45;;
21202;SDS011;10759;51.982;9.232;2023-10-08T00:41:40;14.30;;;9.43;;
21202;SDS011;10759;51.982;9.232;2023-10-08T00:44:11;15.68;;;8.85;;
21202;SDS011;10759;51.982;9.232;2023-10-08T00:46:43;15.05;;;9.50;;
21202;SDS011;10759;51.982;9.232;2023-10-08T00:49:15;13.85;;;8.95;;
21202;SDS011;10759;51.982;9.232;2023-10-08T00:51:53;18.98;;;9.98;;
21202;SDS011;10759;51.982;9.232;2023-10-08T00:54:52;18.40;;;10.50;;
21202;SDS011;10759;51.982;9.232;2023-10-08T00:57:34;17.75;;;9.77;;
21202;SDS011;10759;51.982;9.232;2023-10-08T01:00:04;14.35;;;9.57;;
21202;SDS011;10759;51.982;9.232;2023-10-08T01:02:41;5.43;;;3.55;;
21202;SDS011;10759;51.982;9.232;2023-10-08T01:05:16;2.10;;;0.80;;
21202;SDS011;10759;51.982;9.232;2023-10-08T01:07:48;0.30;;;0.30;;
21202;SDS011;10759;51.982;9.232;2023-10-08T01:10:18;0.28;;;0.28;;
21202;SDS011;10759;51.982;9.232;2023-10-08T01:12:47;0.10;;;0.10;;
21202;SDS011;10759;51.982;9.232;2023-10-08T01:15:31;0.30;;;0.30;;
21202;SDS011;10759;51.982;9.232;2023-10-08T01:18:03;0.13;;;0.13;;
21202;SDS011;10759;51.982;9.232;2023-10-08T01:20:35;0.20;;;0.20;;
21202;SDS011;10759;51.982;9.232;2023-10-08T01:23:06;0.73;;;0.23;;
21202;SDS011;10759;51.982;9.232;2023-10-08T01:25:39;0.13;;;0.13;;
21202;SDS011;10759;51.982;9.232;2023-10-08T01:28:09;0.20;;;0.20;;
21202;SDS011;10759;51.982;9.232;2023-10-08T01:30:41;0.10;;;0.10;;
21202;SDS011;10759;51.982;9.232;2023-10-08T01:33:13;0.10;;;0.10;;
21202;SDS011;10759;51.982;9.232;2023-10-08T01:35:42;0.35;;;0.20;;
21202;SDS011;10759;51.982;9.232;2023-10-08T01:38:12;1.08;;;0.30;;
21202;SDS011;10759;51.982;9.232;2023-10-08T01:40:41;0.17;;;0.17;;
21202;SDS011;10759;51.982;9.232;2023-10-08T01:43:09;0.10;;;0.10;;
21202;SDS011;10759;51.982;9.232;2023-10-08T01:45:40;1.27;;;0.10;;
21202;SDS011;10759;51.982;9.232;2023-10-08T01:48:10;0.10;;;0.10;;
21202;SDS011;10759;51.982;9.232;2023-10-08T01:50:39;0.10;;;0.10;;
21202;SDS011;10759;51.982;9.232;2023-10-08T01:53:07;0.20;;;0.20;;
21202;SDS011;10759;51.982;9.232;2023-10-08T01:55:48;0.10;;;0.10;;
21202;SDS011;10759;51.982;9.232;2023-10-08T01:58:21;0.95;;;0.10;;
21202;SDS011;10759;51.982;9.232;2023-10-08T02:03:23;0.08;;;0.08;;
21202;SDS011;10759;51.982;9.232;2023-10-08T02:05:51;0.10;;;0.10;;
21202;SDS011;10759;51.982;9.232;2023-10-08T02:08:24;0.10;;;0.10;;
21202;SDS011;10759;51.982;9.232;2023-10-08T02:10:55;0.10;;;0.10;;
21202;SDS011;10759;51.982;9.232;2023-10-08T02:13:23;1.77;;;0.10;;
21202;SDS011;10759;51.982;9.232;2023-10-08T02:15:52;0.10;;;0.10;;
21202;SDS011;10759;51.982;9.232;2023-10-08T02:18:26;0.17;;;0.10;;
21202;SDS011;10759;51.982;9.232;2023-10-08T02:21:03;0.88;;;0.10;;
21202;SDS011;10759;51.982;9.232;2023-10-08T02:23:43;0.10;;;0.10;;
21202;SDS011;10759;51.982;9.232;2023-10-08T02:26:14;0.98;;;0.10;;
21202;SDS011;10759;51.982;9.232;2023-10-08T02:28:48;0.63;;;0.30;;
21202;SDS011;10759;51.982;9.232;2023-10-08T02:31:21;0.38;;;0.20;;
21202;SDS011;10759;51.982;9.232;2023-10-08T02:33:57;0.63;;;0.10;;
21202;SDS011;10759;51.982;9.232;2023-10-08T02:36:29;0.10;;;0.10;;
21202;SDS011;10759;51.982;9.232;2023-10-08T02:38:58;0.20;;;0.20;;
21202;SDS011;10759;51.982;9.232;2023-10-08T02:41:32;0.15;;;0.10;;
21202;SDS011;10759;51.982;9.232;2023-10-08T02:44:01;0.10;;;0.10;;
21202;SDS011;10759;51.982;9.232;2023-10-08T02:46:34;0.00;;;0.00;;
21202;SDS011;10759;51.982;9.232;2023-10-08T02:49:07;0.10;;;0.10;;
21202;SDS011;10759;51.982;9.232;2023-10-08T02:51:39;0.17;;;0.17;;
21202;SDS011;10759;51.982;9.232;2023-10-08T02:54:07;0.20;;;0.20;;
21202;SDS011;10759;51.982;9.232;2023-10-08T02:56:46;1.17;;;0.13;;
21202;SDS011;10759;51.982;9.232;2023-10-08T02:59:17;1.25;;;0.30;;
21202;SDS011;10759;51.982;9.232;2023-10-08T03:01:49;0.50;;;0.30;;
21202;SDS011;10759;51.982;9.232;2023-10-08T03:04:22;0.80;;;0.30;;
21202;SDS011;10759;51.982;9.232;2023-10-08T03:06:54;0.90;;;0.30;;
21202;SDS011;10759;51.982;9.232;2023-10-08T03:09:23;0.50;;;0.50;;
21202;SDS011;10759;51.982;9.232;2023-10-08T03:11:54;0.93;;;0.40;;
21202;SDS011;10759;51.982;9.232;2023-10-08T03:14:24;1.13;;;0.55;;
21202;SDS011;10759;51.982;9.232;2023-10-08T03:16:53;2.90;;;0.60;;
21202;SDS011;10759;51.982;9.232;2023-10-08T03:19:33;2.05;;;0.77;;
21202;SDS011;10759;51.982;9.232;2023-10-08T03:22:03;2.00;;;0.70;;
21202;SDS011;10759;51.982;9.232;2023-10-08T03:24:32;1.58;;;0.68;;
21202;SDS011;10759;51.982;9.232;2023-10-08T03:27:07;3.38;;;0.77;;
21202;SDS011;10759;51.982;9.232;2023-10-08T03:29:40;1.63;;;0.70;;
21202;SDS011;10759;51.982;9.232;2023-10-08T03:32:14;0.68;;;0.50;;
21202;SDS011;10759;51.982;9.232;2023-10-08T03:34:44;1.02;;;0.70;;
21202;SDS011;10759;51.982;9.232;2023-10-08T03:37:13;2.75;;;0.90;;
21202;SDS011;10759;51.982;9.232;2023-10-08T03:39:47;6.95;;;1.02;;
21202;SDS011;10759;51.982;9.232;2023-10-08T03:42:21;2.75;;;0.80;;
21202;SDS011;10759;51.982;9.232;2023-10-08T03:44:50;2.17;;;0.60;;
21202;SDS011;10759;51.982;9.232;2023-10-08T03:47:19;4.20;;;1.00;;
21202;SDS011;10759;51.982;9.232;2023-10-08T03:49:49;3.40;;;1.02;;
21202;SDS011;10759;51.982;9.232;2023-10-08T03:52:18;6.15;;;1.25;;
21202;SDS011;10759;51.982;9.232;2023-10-08T03:54:50;4.43;;;1.17;;
21202;SDS011;10759;51.982;9.232;2023-10-08T03:57:32;2.33;;;1.00;;
21202;SDS011;10759;51.982;9.232;2023-10-08T04:00:17;2.45;;;1.10;;
21202;SDS011;10759;51.982;9.232;2023-10-08T04:02:55;4.97;;;1.02;;
21202;SDS011;10759;51.982;9.232;2023-10-08T04:05:27;4.57;;;1.27;;
21202;SDS011;10759;51.982;9.232;2023-10-08T04:08:07;3.00;;;1.23;;
21202;SDS011;10759;51.982;9.232;2023-10-08T04:10:51;3.00;;;0.95;;
21202;SDS011;10759;51.982;9.232;2023-10-08T04:13:55;5.85;;;1.00;;
21202;SDS011;10759;51.982;9.232;2023-10-08T04:16:26;2.50;;;1.00;;
21202;SDS011;10759;51.982;9.232;2023-10-08T04:18:55;5.35;;;1.10;;
21202;SDS011;10759;51.982;9.232;2023-10-08T04:21:24;4.38;;;1.13;;
21202;SDS011;10759;51.982;9.232;2023-10-08T04:23:54;2.67;;;1.20;;
21202;SDS011;10759;51.982;9.232;2023-10-08T04:26:24;3.38;;;1.92;;
21202;SDS011;10759;51.982;9.232;2023-10-08T04:28:52;2.13;;;1.05;;
21202;SDS011;10759;51.982;9.232;2023-10-08T04:31:25;2.58;;;1.10;;
21202;SDS011;10759;51.982;9.232;2023-10-08T04:34:03;4.00;;;1.25;;
21202;SDS011;10759;51.982;9.232;2023-10-08T04:36:37;1.52;;;1.10;;
21202;SDS011;10759;51.982;9.232;2023-10-08T04:39:07;2.75;;;1.02;;
21202;SDS011;10759;51.982;9.232;2023-10-08T04:41:42;2.17;;;0.95;;
21202;SDS011;10759;51.982;9.232;2023-10-08T04:44:11;3.67;;;1.30;;
21202;SDS011;10759;51.982;9.232;2023-10-08T04:46:43;3.97;;;1.08;;
21202;SDS011;10759;51.982;9.232;2023-10-08T04:49:18;3.60;;;1.77;;
21202;SDS011;10759;51.982;9.232;2023-10-08T04:51:57;4.28;;;0.98;;
21202;SDS011;10759;51.982;9.232;2023-10-08T04:54:26;2.53;;;1.05;;
21202;SDS011;10759;51.982;9.232;2023-10-08T04:56:57;4.38;;;1.13;;
21202;SDS011;10759;51.982;9.232;2023-10-08T04:59:29;3.05;;;0.95;;
21202;SDS011;10759;51.982;9.232;2023-10-08T05:02:03;2.55;;;1.13;;
21202;SDS011;10759;51.982;9.232;2023-10-08T05:04:47;2.88;;;1.67;;
21202;SDS011;10759;51.982;9.232;2023-10-08T05:07:50;4.57;;;1.00;;
21202;SDS011;10759;51.982;9.232;2023-10-08T05:10:32;4.03;;;1.08;;
21202;SDS011;10759;51.982;9.232;2023-10-08T05:13:28;2.35;;;0.80;;
21202;SDS011;10759;51.982;9.232;2023-10-08T05:16:01;2.35;;;0.98;;
21202;SDS011;10759;51.982;9.232;2023-10-08T05:18:40;5.68;;;1.00;;
21202;SDS011;10759;51.982;9.232;2023-10-08T05:21:28;3.53;;;1.10;;
21202;SDS011;10759;51.982;9.232;2023-10-08T05:24:21;3.33;;;1.42;;
21202;SDS011;10759;51.982;9.232;2023-10-08T05:27:04;4.70;;;1.15;;
21202;SDS011;10759;51.982;9.232;2023-10-08T05:29:51;3.22;;;1.00;;
21202;SDS011;10759;51.982;9.232;2023-10-08T05:32:35;9.05;;;1.38;;
21202;SDS011;10759;51.982;9.232;2023-10-08T05:35:33;3.75;;;1.15;;
21202;SDS011;10759;51.982;9.232;2023-10-08T05:38:16;2.42;;;1.08;;
21202;SDS011;10759;51.982;9.232;2023-10-08T05:41:05;2.47;;;0.90;;
21202;SDS011;10759;51.982;9.232;2023-10-08T05:43:55;3.20;;;1.00;;
21202;SDS011;10759;51.982;9.232;2023-10-08T05:46:44;3.37;;;1.30;;
21202;SDS011;10759;51.982;9.232;2023-10-08T05:49:23;4.25;;;1.20;;
21202;SDS011;10759;51.982;9.232;2023-10-08T05:52:07;2.00;;;1.08;;
21202;SDS011;10759;51.982;9.232;2023-10-08T05:55:07;1.67;;;0.80;;
21202;SDS011;10759;51.982;9.232;2023-10-08T05:57:47;3.67;;;1.10;;
21202;SDS011;10759;51.982;9.232;2023-10-08T06:00:19;2.08;;;0.93;;
21202;SDS011;10759;51.982;9.232;2023-10-08T06:03:04;3.85;;;0.90;;
21202;SDS011;10759;51.982;9.232;2023-10-08T06:05:38;2.88;;;1.05;;
21202;SDS011;10759;51.982;9.232;2023-10-08T06:08:15;2.88;;;0.90;;
21202;SDS011;10759;51.982;9.232;2023-10-08T06:11:04;3.53;;;1.35;;
21202;SDS011;10759;51.982;9.232;2023-10-08T06:13:44;4.10;;;0.90;;
21202;SDS011;10759;51.982;9.232;2023-10-08T06:16:17;3.50;;;1.40;;
21202;SDS011;10759;51.982;9.232;2023-10-08T06:18:58;2.05;;;0.80;;
21202;SDS011;10759;51.982;9.232;2023-10-08T06:21:28;2.85;;;1.10;;
21202;SDS011;10759;51.982;9.232;2023-10-08T06:23:57;4.05;;;1.33;;
21202;SDS011;10759;51.982;9.232;2023-10-08T06:26:30;2.08;;;1.33;;
21202;SDS011;10759;51.982;9.232;2023-10-08T06:29:01;2.97;;;1.25;;
21202;SDS011;10759;51.982;9.232;2023-10-08T06:31:45;4.43;;;1.60;;
21202;SDS011;10759;51.982;9.232;2023-10-08T06:34:18;4.05;;;1.50;;
21202;SDS011;10759;51.982;9.232;2023-10-08T06:36:48;4.15;;;1.80;;
21202;SDS011;10759;51.982;9.232;2023-10-08T06:39:24;4.78;;;1.30;;
21202;SDS011;10759;51.982;9.232;2023-10-08T06:42:00;4.57;;;1.50;;
21202;SDS011;10759;51.982;9.232;2023-10-08T06:44:33;7.40;;;1.77;;
21202;SDS011;10759;51.982;9.232;2023-10-08T06:47:09;6.03;;;1.40;;
21202;SDS011;10759;51.982;9.232;2023-10-08T06:49:38;3.25;;;1.00;;
21202;SDS011;10759;51.982;9.232;2023-10-08T06:52:06;3.95;;;1.00;;
21202;SDS011;10759;51.982;9.232;2023-10-08T06:54:39;1.77;;;0.90;;
21202;SDS011;10759;51.982;9.232;2023-10-08T06:57:07;2.92;;;1.33;;
21202;SDS011;10759;51.982;9.232;2023-10-08T06:59:40;3.25;;;1.23;;
21202;SDS011;10759;51.982;9.232;2023-10-08T07:02:10;2.17;;;1.27;;
21202;SDS011;10759;51.982;9.232;2023-10-08T07:04:42;3.83;;;1.27;;
21202;SDS011;10759;51.982;9.232;2023-10-08T07:07:13;3.33;;;1.25;;
21202;SDS011;10759;51.982;9.232;2023-10-08T07:09:47;4.20;;;1.20;;
21202;SDS011;10759;51.982;9.232;2023-10-08T07:12:18;2.97;;;1.30;;
21202;SDS011;10759;51.982;9.232;2023-10-08T07:14:46;4.32;;;1.30;;
21202;SDS011;10759;51.982;9.232;2023-10-08T07:17:14;2.88;;;1.20;;
21202;SDS011;10759;51.982;9.232;2023-10-08T07:19:47;3.55;;;1.40;;
21202;SDS011;10759;51.982;9.232;2023-10-08T07:22:17;2.58;;;1.23;;
21202;SDS011;10759;51.982;9.232;2023-10-08T07:24:51;3.97;;;1.65;;
21202;SDS011;10759;51.982;9.232;2023-10-08T07:27:22;3.35;;;1.80;;
21202;SDS011;10759;51.982;9.232;2023-10-08T07:29:57;5.70;;;1.70;;
21202;SDS011;10759;51.982;9.232;2023-10-08T07:32:27;3.65;;;1.55;;
21202;SDS011;10759;51.982;9.232;2023-10-08T07:34:57;3.75;;;1.55;;
21202;SDS011;10759;51.982;9.232;2023-10-08T07:37:42;2.75;;;1.45;;
21202;SDS011;10759;51.982;9.232;2023-10-08T07:40:15;3.65;;;1.30;;
21202;SDS011;10759;51.982;9.232;2023-10-08T07:42:54;6.22;;;1.40;;
21202;SDS011;10759;51.982;9.232;2023-10-08T07:45:22;5.30;;;1.58;;
21202;SDS011;10759;51.982;9.232;2023-10-08T07:47:51;4.63;;;1.50;;
21202;SDS011;10759;51.982;9.232;2023-10-08T07:50:22;3.85;;;1.48;;
21202;SDS011;10759;51.982;9.232;2023-10-08T07:52:51;6.88;;;1.90;;
21202;SDS011;10759;51.982;9.232;2023-10-08T07:55:23;3.53;;;1.90;;
21202;SDS011;10759;51.982;9.232;2023-10-08T07:57:51;5.93;;;1.53;;
21202;SDS011;10759;51.982;9.232;2023-10-08T08:00:21;3.78;;;1.55;;
21202;SDS011;10759;51.982;9.232;2023-10-08T08:02:52;3.58;;;1.20;;
21202;SDS011;10759;51.982;9.232;2023-10-08T08:05:22;5.97;;;1.70;;
21202;SDS011;10759;51.982;9.232;2023-10-08T08:07:52;7.95;;;6.63;;
21202;SDS011;10759;51.982;9.232;2023-10-08T08:10:24;3.67;;;1.20;;
21202;SDS011;10759;51.982;9.232;2023-10-08T08:12:53;4.47;;;2.47;;
21202;SDS011;10759;51.982;9.232;2023-10-08T08:15:23;6.00;;;1.77;;
21202;SDS011;10759;51.982;9.232;2023-10-08T08:17:55;17.38;;;15.70;;
21202;SDS011;10759;51.982;9.232;2023-10-08T08:20:24;3.20;;;1.80;;
21202;SDS011;10759;51.982;9.232;2023-10-08T08:23:01;4.13;;;1.33;;
21202;SDS011;10759;51.982;9.232;2023-10-08T08:25:38;4.32;;;1.40;;
21202;SDS011;10759;51.982;9.232;2023-10-08T08:28:28;6.90;;;5.65;;
21202;SDS011;10759;51.982;9.232;2023-10-08T08:31:01;5.25;;;1.50;;
21202;SDS011;10759;51.982;9.232;2023-10-08T08:33:31;3.20;;;1.70;;
21202;SDS011;10759;51.982;9.232;2023-10-08T08:36:19;4.90;;;1.92;;
21202;SDS011;10759;51.982;9.232;2023-10-08T08:38:48;4.55;;;1.60;;
21202;SDS011;10759;51.982;9.232;2023-10-08T08:41:19;3.25;;;1.20;;
21202;SDS011;10759;51.982;9.232;2023-10-08T08:43:50;5.60;;;3.40;;
21202;SDS011;10759;51.982;9.232;2023-10-08T08:46:34;6.15;;;3.25;;
21202;SDS011;10759;51.982;9.232;2023-10-08T08:49:04;12.95;;;9.00;;
21202;SDS011;10759;51.982;9.232;2023-10-08T08:54:02;10.38;;;5.65;;
21202;SDS011;10759;51.982;9.232;2023-10-08T08:56:35;3.80;;;1.35;;
21202;SDS011;10759;51.982;9.232;2023-10-08T08:59:05;6.63;;;1.70;;
21202;SDS011;10759;51.982;9.232;2023-10-08T09:01:33;4.63;;;1.30;;
21202;SDS011;10759;51.982;9.232;2023-10-08T09:04:03;6.20;;;1.58;;
21202;SDS011;10759;51.982;9.232;2023-10-08T09:06:33;3.15;;;1.20;;
21202;SDS011;10759;51.982;9.232;2023-10-08T09:09:03;3.97;;;1.90;;
21202;SDS011;10759;51.982;9.232;2023-10-08T09:11:51;6.20;;;1.60;;
21202;SDS011;10759;51.982;9.232;2023-10-08T09:14:25;1.90;;;1.00;;
21202;SDS011;10759;51.982;9.232;2023-10-08T09:16:56;5.10;;;1.27;;
21202;SDS011;10759;51.982;9.232;2023-10-08T09:19:26;3.47;;;1.77;;
21202;SDS011;10759;51.982;9.232;2023-10-08T09:22:01;5.00;;;1.45;;
21202;SDS011;10759;51.982;9.232;2023-10-08T09:24:31;2.67;;;1.20;;
21202;SDS011;10759;51.982;9.232;2023-10-08T09:27:05;2.95;;;1.50;;
21202;SDS011;10759;51.982;9.232;2023-10-08T09:29:34;4.47;;;1.98;;
21202;SDS011;10759;51.982;9.232;2023-10-08T09:32:09;3.25;;;1.17;;
21202;SDS011;10759;51.982;9.232;2023-10-08T09:34:38;2.85;;;1.23;;
21202;SDS011;10759;51.982;9.232;2023-10-08T09:37:06;3.92;;;1.10;;
21202;SDS011;10759;51.982;9.232;2023-10-08T09:39:35;4.75;;;1.00;;
21202;SDS011;10759;51.982;9.232;2023-10-08T09:42:08;4.07;;;1.00;;
21202;SDS011;10759;51.982;9.232;2023-10-08T09:44:38;3.58;;;1.38;;
21202;SDS011;10759;51.982;9.232;2023-10-08T09:47:09;5.38;;;1.25;;
21202;SDS011;10759;51.982;9.232;2023-10-08T09:49:39;2.75;;;1.08;;
21202;SDS011;10759;51.982;9.232;2023-10-08T09:52:09;7.15;;;1.33;;
21202;SDS011;10759;51.982;9.232;2023-10-08T09:54:42;5.15;;;1.45;;
21202;SDS011;10759;51.982;9.232;2023-10-08T09:57:25;3.97;;;1.30;;
21202;SDS011;10759;51.982;9.232;2023-10-08T09:59:53;5.38;;;1.10;;
21202;SDS011;10759;51.982;9.232;2023-10-08T10:02:23;5.78;;;1.48;;
21202;SDS011;10759;51.982;9.232;2023-10-08T10:04:54;5.53;;;1.83;;
21202;SDS011;10759;51.982;9.232;2023-10-08T10:07:25;5.53;;;1.20;;
21202;SDS011;10759;51.982;9.232;2023-10-08T10:09:55;3.42;;;1.20;;
21202;SDS011;10759;51.982;9.232;2023-10-08T10:12:26;3.28;;;1.27;;
21202;SDS011;10759;51.982;9.232;2023-10-08T10:14:55;5.25;;;1.42;;
21202;SDS011;10759;51.982;9.232;2023-10-08T10:17:25;6.78;;;1.38;;
21202;SDS011;10759;51.982;9.232;2023-10-08T10:20:10;3.33;;;1.17;;
21202;SDS011;10759;51.982;9.232;2023-10-08T10:22:42;2.90;;;1.10;;
21202;SDS011;10759;51.982;9.232;2023-10-08T10:25:15;2.85;;;1.20;;
21202;SDS011;10759;51.982;9.232;2023-10-08T10:30:51;5.20;;;1.38;;
21202;SDS011;10759;51.982;9.232;2023-10-08T10:33:19;4.82;;;1.30;;
21202;SDS011;10759;51.982;9.232;2023-10-08T10:35:51;4.88;;;1.20;;
21202;SDS011;10759;51.982;9.232;2023-10-08T10:38:19;5.35;;;1.23;;
21202;SDS011;10759;51.982;9.232;2023-10-08T10:40:53;4.40;;;1.48;;
21202;SDS011;10759;51.982;9.232;2023-10-08T10:43:26;4.35;;;1.05;;
21202;SDS011;10759;51.982;9.232;2023-10-08T10:45:59;2.55;;;1.10;;
21202;SDS011;10759;51.982;9.232;2023-10-08T10:48:50;8.95;;;1.50;;
21202;SDS011;10759;51.982;9.232;2023-10-08T10:51:32;5.97;;;1.48;;
21202;SDS011;10759;51.982;9.232;2023-10-08T10:54:00;5.55;;;1.25;;
21202;SDS011;10759;51.982;9.232;2023-10-08T10:56:37;4.72;;;1.40;;
21202;SDS011;10759;51.982;9.232;2023-10-08T10:59:11;4.97;;;1.60;;
21202;SDS011;10759;51.982;9.232;2023-10-08T11:01:53;7.70;;;1.65;;
21202;SDS011;10759;51.982;9.232;2023-10-08T11:04:32;4.38;;;1.40;;
21202;SDS011;10759;51.982;9.232;2023-10-08T11:07:11;4.65;;;1.35;;
21202;SDS011;10759;51.982;9.232;2023-10-08T11:09:40;4.80;;;1.88;;
21202;SDS011;10759;51.982;9.232;2023-10-08T11:12:12;2.72;;;1.20;;
21202;SDS011;10759;51.982;9.232;2023-10-08T11:14:51;3.10;;;1.30;;
21202;SDS011;10759;51.982;9.232;2023-10-08T11:17:22;5.45;;;1.25;;
21202;SDS011;10759;51.982;9.232;2023-10-08T11:19:53;4.65;;;1.05;;
21202;SDS011;10759;51.982;9.232;2023-10-08T11:22:21;5.97;;;2.20;;
21202;SDS011;10759;51.982;9.232;2023-10-08T11:24:50;2.70;;;1.40;;
21202;SDS011;10759;51.982;9.232;2023-10-08T11:27:20;6.45;;;1.70;;
21202;SDS011;10759;51.982;9.232;2023-10-08T11:29:57;2.58;;;1.20;;
21202;SDS011;10759;51.982;9.232;2023-10-08T11:32:30;3.92;;;1.30;;
21202;SDS011;10759;51.982;9.232;2023-10-08T11:35:01;2.15;;;1.05;;
21202;SDS011;10759;51.982;9.232;2023-10-08T11:37:46;9.27;;;1.50;;
21202;SDS011;10759;51.982;9.232;2023-10-08T11:40:24;3.35;;;1.38;;
21202;SDS011;10759;51.982;9.232;2023-10-08T11:42:56;3.92;;;1.20;;
21202;SDS011;10759;51.982;9.232;2023-10-08T11:45:27;3.40;;;1.23;;
21202;SDS011;10759;51.982;9.232;2023-10-08T11:48:05;2.83;;;1.38;;
21202;SDS011;10759;51.982;9.232;2023-10-08T11:50:39;3.60;;;1.20;;
21202;SDS011;10759;51.982;9.232;2023-10-08T11:53:07;3.42;;;1.20;;
21202;SDS011;10759;51.982;9.232;2023-10-08T11:58:07;3.53;;;1.25;;
21202;SDS011;10759;51.982;9.232;2023-10-08T12:00:39;2.85;;;1.58;;
21202;SDS011;10759;51.982;9.232;2023-10-08T12:03:13;2.75;;;1.25;;
21202;SDS011;10759;51.982;9.232;2023-10-08T12:05:46;6.95;;;1.13;;
21202;SDS011;10759;51.982;9.232;2023-10-08T12:08:17;5.55;;;1.50;;
21202;SDS011;10759;51.982;9.232;2023-10-08T12:10:49;2.50;;;1.25;;
21202;SDS011;10759;51.982;9.232;2023-10-08T12:13:22;3.38;;;1.10;;
21202;SDS011;10759;51.982;9.232;2023-10-08T12:15:53;4.15;;;1.48;;
21202;SDS011;10759;51.982;9.232;2023-10-08T12:18:32;5.30;;;1.40;;
21202;SDS011;10759;51.982;9.232;2023-10-08T12:21:07;4.82;;;1.27;;
21202;SDS011;10759;51.982;9.232;2023-10-08T12:23:37;3.63;;;1.17;;
21202;SDS011;10759;51.982;9.232;2023-10-08T12:26:07;3.95;;;1.52;;
21202;SDS011;10759;51.982;9.232;2023-10-08T12:28:35;3.05;;;1.20;;
21202;SDS011;10759;51.982;9.232;2023-10-08T12:31:06;2.85;;;1.30;;
21202;SDS011;10759;51.982;9.232;2023-10-08T12:33:36;4.25;;;1.23;;
21202;SDS011;10759;51.982;9.232;2023-10-08T12:36:06;5.38;;;1.30;;
21202;SDS011;10759;51.982;9.232;2023-10-08T12:38:39;6.95;;;1.52;;
21202;SDS011;10759;51.982;9.232;2023-10-08T12:43:42;5.95;;;1.55;;
21202;SDS011;10759;51.982;9.232;2023-10-08T12:46:14;4.72;;;1.20;;
21202;SDS011;10759;51.982;9.232;2023-10-08T12:48:50;2.75;;;1.35;;
21202;SDS011;10759;51.982;9.232;2023-10-08T12:51:21;2.90;;;1.00;;
21202;SDS011;10759;51.982;9.232;2023-10-08T12:53:51;4.43;;;1.60;;
21202;SDS011;10759;51.982;9.232;2023-10-08T12:56:26;3.08;;;1.25;;
21202;SDS011;10759;51.982;9.232;2023-10-08T12:59:02;7.30;;;1.38;;
21202;SDS011;10759;51.982;9.232;2023-10-08T13:01:34;3.88;;;1.20;;
21202;SDS011;10759;51.982;9.232;2023-10-08T13:04:08;4.75;;;1.23;;
21202;SDS011;10759;51.982;9.232;2023-10-08T13:06:42;3.03;;;1.20;;
21202;SDS011;10759;51.982;9.232;2023-10-08T13:09:12;3.83;;;1.50;;
21202;SDS011;10759;51.982;9.232;2023-10-08T13:11:41;3.80;;;1.15;;
21202;SDS011;10759;51.982;9.232;2023-10-08T13:14:10;4.03;;;1.50;;
21202;SDS011;10759;51.982;9.232;2023-10-08T13:16:41;3.50;;;1.55;;
21202;SDS011;10759;51.982;9.232;2023-10-08T13:19:12;5.22;;;1.40;;
21202;SDS011;10759;51.982;9.232;2023-10-08T13:24:10;4.97;;;1.10;;
21202;SDS011;10759;51.982;9.232;2023-10-08T13:26:43;2.20;;;0.90;;
21202;SDS011;10759;51.982;9.232;2023-10-08T13:29:14;3.47;;;1.48;;
21202;SDS011;10759;51.982;9.232;2023-10-08T13:31:46;5.45;;;1.20;;
21202;SDS011;10759;51.982;9.232;2023-10-08T13:34:15;2.22;;;1.17;;
21202;SDS011;10759;51.982;9.232;2023-10-08T13:36:43;4.72;;;1.40;;
21202;SDS011;10759;51.982;9.232;2023-10-08T13:39:16;7.13;;;1.55;;
21202;SDS011;10759;51.982;9.232;2023-10-08T13:41:48;3.50;;;1.58;;
21202;SDS011;10759;51.982;9.232;2023-10-08T13:44:16;2.13;;;0.98;;
21202;SDS011;10759;51.982;9.232;2023-10-08T13:46:47;4.23;;;1.40;;
21202;SDS011;10759;51.982;9.232;2023-10-08T13:49:16;5.05;;;1.20;;
21202;SDS011;10759;51.982;9.232;2023-10-08T13:51:45;1.67;;;1.00;;
21202;SDS011;10759;51.982;9.232;2023-10-08T13:54:23;4.93;;;1.55;;
21202;SDS011;10759;51.982;9.232;2023-10-08T13:56:55;4.97;;;1.30;;
21202;SDS011;10759;51.982;9.232;2023-10-08T13:59:25;5.50;;;1.42;;
21202;SDS011;10759;51.982;9.232;2023-10-08T14:02:00;6.57;;;1.48;;
21202;SDS011;10759;51.982;9.232;2023-10-08T14:04:41;3.08;;;1.33;;
21202;SDS011;10759;51.982;9.232;2023-10-08T14:07:11;3.47;;;1.42;;
21202;SDS011;10759;51.982;9.232;2023-10-08T14:09:43;2.50;;;1.10;;
21202;SDS011;10759;51.982;9.232;2023-10-08T14:12:12;3.10;;;1.50;;
21202;SDS011;10759;51.982;9.232;2023-10-08T14:14:41;3.65;;;1.30;;
21202;SDS011;10759;51.982;9.232;2023-10-08T14:17:14;4.38;;;1.20;;
21202;SDS011;10759;51.982;9.232;2023-10-08T14:20:03;3.65;;;1.75;;
21202;SDS011;10759;51.982;9.232;2023-10-08T14:22:39;5.18;;;1.52;;
21202;SDS011;10759;51.982;9.232;2023-10-08T14:25:10;7.13;;;1.27;;
21202;SDS011;10759;51.982;9.232;2023-10-08T14:27:44;3.88;;;1.27;;
21202;SDS011;10759;51.982;9.232;2023-10-08T14:30:23;4.03;;;1.35;;
21202;SDS011;10759;51.982;9.232;2023-10-08T14:33:10;2.28;;;1.20;;
21202;SDS011;10759;51.982;9.232;2023-10-08T14:35:50;3.50;;;1.20;;
21202;SDS011;10759;51.982;9.232;2023-10-08T14:38:36;4.05;;;1.58;;
21202;SDS011;10759;51.982;9.232;2023-10-08T14:41:24;4.97;;;1.83;;
21202;SDS011;10759;51.982;9.232;2023-10-08T14:44:12;6.88;;;2.10;;
21202;SDS011;10759;51.982;9.232;2023-10-08T14:46:48;3.63;;;1.45;;
21202;SDS011;10759;51.982;9.232;2023-10-08T14:49:33;3.92;;;1.45;;
21202;SDS011;10759;51.982;9.232;2023-10-08T14:52:33;3.88;;;1.58;;
21202;SDS011;10759;51.982;9.232;2023-10-08T14:55:05;3.35;;;1.20;;
21202;SDS011;10759;51.982;9.232;2023-10-08T14:57:49;4.47;;;1.63;;
21202;SDS011;10759;51.982;9.232;2023-10-08T15:00:23;3.00;;;1.48;;
21202;SDS011;10759;51.982;9.232;2023-10-08T15:02:56;7.80;;;4.30;;
21202;SDS011;10759;51.982;9.232;2023-10-08T15:05:43;3.85;;;2.60;;
21202;SDS011;10759;51.982;9.232;2023-10-08T15:08:19;3.78;;;1.33;;
21202;SDS011;10759;51.982;9.232;2023-10-08T15:10:50;5.07;;;1.50;;
21202;SDS011;10759;51.982;9.232;2023-10-08T15:13:23;6.55;;;1.40;;
21202;SDS011;10759;51.982;9.232;2023-10-08T15:15:53;10.63;;;9.52;;
21202;SDS011;10759;51.982;9.232;2023-10-08T15:18:26;6.53;;;5.88;;
21202;SDS011;10759;51.982;9.232;2023-10-08T15:21:02;29.98;;;27.17;;
21202;SDS011;10759;51.982;9.232;2023-10-08T15:23:40;30.48;;;27.27;;
21202;SDS011;10759;51.982;9.232;2023-10-08T15:26:12;4.22;;;1.95;;
21202;SDS011;10759;51.982;9.232;2023-10-08T15:28:44;4.95;;;2.25;;
21202;SDS011;10759;51.982;9.232;2023-10-08T15:31:24;3.75;;;2.30;;
21202;SDS011;10759;51.982;9.232;2023-10-08T15:33:57;7.68;;;6.88;;
21202;SDS011;10759;51.982;9.232;2023-10-08T15:36:34;4.80;;;3.00;;
21202;SDS011;10759;51.982;9.232;2023-10-08T15:39:05;12.07;;;9.20;;
21202;SDS011;10759;51.982;9.232;2023-10-08T15:41:36;89.47;;;71.95;;